sensor_id;sensor_type;location;lat;lon;timestamp;temperature;humidity
12557;DHT22;6344;49.932;8.308;2022-12-18T00:01:44;-6.70;99.90
12557;DHT22;6344;49.932;8.308;2022-12-18T00:04:21;-6.80;99.90
12557;DHT22;6344;49.932;8.308;2022-12-18T00:06:49;-6.80;99.90
12557;DHT22;6344;49.932;8.308;2022-12-18T00:09:19;-6.80;99.90
12557;DHT22;6344;49.932;8.308;2022-12-18T00:11:47;-6.80;99.90
12557;DHT22;6344;49.932;8.308;2022-12-18T00:14:17;-6.90;99.90
12557;DHT22;6344;49.932;8.308;2022-12-18T00:16:50;-6.90;99.90
12557;DHT22;6344;49.932;8.308;2022-12-18T00:19:21;-6.80;99.90
12557;DHT22;6344;49.932;8.308;2022-12-18T00:21:50;-6.90;99.90
12557;DHT22;6344;49.932;8.308;2022-12-18T00:24:22;-6.80;99.90
12557;DHT22;6344;49.932;8.308;2022-12-18T00:26:52;-6.70;99.90
12557;DHT22;6344;49.932;8.308;2022-12-18T00:29:19;-6.70;99.90
12557;DHT22;6344;49.932;8.308;2022-12-18T00:31:47;-6.80;99.90
12557;DHT22;6344;49.932;8.308;2022-12-18T00:34:14;-6.70;99.90
12557;DHT22;6344;49.932;8.308;2022-12-18T00:36:46;-6.70;99.90
12557;DHT22;6344;49.932;8.308;2022-12-18T00:39:23;-6.80;99.90
12557;DHT22;6344;49.932;8.308;2022-12-18T00:41:51;-6.80;99.90
12557;DHT22;6344;49.932;8.308;2022-12-18T00:44:40;-7.00;99.90
12557;DHT22;6344;49.932;8.308;2022-12-18T00:47:17;-7.00;99.90
12557;DHT22;6344;49.932;8.308;2022-12-18T00:49:46;-6.90;99.90
12557;DHT22;6344;49.932;8.308;2022-12-18T00:52:24;-6.90;99.90
12557;DHT22;6344;49.932;8.308;2022-12-18T00:54:51;-7.20;99.90
12557;DHT22;6344;49.932;8.308;2022-12-18T00:57:17;-7.20;99.90
12557;DHT22;6344;49.932;8.308;2022-12-18T00:59:44;-7.40;99.90
12557;DHT22;6344;49.932;8.308;2022-12-18T01:02:24;-7.40;99.90
12557;DHT22;6344;49.932;8.308;2022-12-18T01:04:53;-7.60;99.90
12557;DHT22;6344;49.932;8.308;2022-12-18T01:07:23;-7.80;99.90
12557;DHT22;6344;49.932;8.308;2022-12-18T01:09:50;-7.90;99.90
12557;DHT22;6344;49.932;8.308;2022-12-18T01:12:22;-7.90;99.90
12557;DHT22;6344;49.932;8.308;2022-12-18T01:14:52;-7.90;99.90
12557;DHT22;6344;49.932;8.308;2022-12-18T01:17:24;-7.90;99.90
12557;DHT22;6344;49.932;8.308;2022-12-18T01:19:55;-8.00;99.90
12557;DHT22;6344;49.932;8.308;2022-12-18T01:22:23;-8.10;99.90
12557;DHT22;6344;49.932;8.308;2022-12-18T01:24:56;-8.10;99.90
12557;DHT22;6344;49.932;8.308;2022-12-18T01:27:28;-8.20;99.90
12557;DHT22;6344;49.932;8.308;2022-12-18T01:29:59;-8.20;99.90
12557;DHT22;6344;49.932;8.308;2022-12-18T01:32:31;-8.30;99.90
12557;DHT22;6344;49.932;8.308;2022-12-18T01:35:00;-8.40;99.90
12557;DHT22;6344;49.932;8.308;2022-12-18T01:37:35;-8.50;99.90
12557;DHT22;6344;49.932;8.308;2022-12-18T01:40:04;-8.60;99.90
12557;DHT22;6344;49.932;8.308;2022-12-18T01:42:35;-8.80;99.90
12557;DHT22;6344;49.932;8.308;2022-12-18T01:45:22;-8.80;99.90
12557;DHT22;6344;49.932;8.308;2022-12-18T01:47:56;-8.70;99.90
12557;DHT22;6344;49.932;8.308;2022-12-18T01:50:25;-8.80;99.90
12557;DHT22;6344;49.932;8.308;2022-12-18T01:52:58;-9.10;99.90
12557;DHT22;6344;49.932;8.308;2022-12-18T01:55:29;-9.00;99.90
12557;DHT22;6344;49.932;8.308;2022-12-18T01:58:00;-8.90;99.90
12557;DHT22;6344;49.932;8.308;2022-12-18T02:00:27;-9.10;99.90
12557;DHT22;6344;49.932;8.308;2022-12-18T02:02:56;-9.10;99.90
12557;DHT22;6344;49.932;8.308;2022-12-18T02:05:30;-9.20;99.90
12557;DHT22;6344;49.932;8.308;2022-12-18T02:08:07;-9.20;99.90
12557;DHT22;6344;49.932;8.308;2022-12-18T02:10:45;-9.20;99.90
12557;DHT22;6344;49.932;8.308;2022-12-18T02:13:22;-9.20;99.90
12557;DHT22;6344;49.932;8.308;2022-12-18T02:16:05;-9.40;99.90
12557;DHT22;6344;49.932;8.308;2022-12-18T02:18:42;-9.40;99.90
12557;DHT22;6344;49.932;8.308;2022-12-18T02:21:17;-9.60;99.90
12557;DHT22;6344;49.932;8.308;2022-12-18T02:23:54;-9.70;99.90
12557;DHT22;6344;49.932;8.308;2022-12-18T02:26:28;-9.50;99.90
12557;DHT22;6344;49.932;8.308;2022-12-18T02:28:59;-9.40;99.90
12557;DHT22;6344;49.932;8.308;2022-12-18T02:31:33;-9.50;99.90
12557;DHT22;6344;49.932;8.308;2022-12-18T02:34:06;-9.50;99.90
12557;DHT22;6344;49.932;8.308;2022-12-18T02:36:38;-9.50;99.90
12557;DHT22;6344;49.932;8.308;2022-12-18T02:39:09;-9.50;99.90
12557;DHT22;6344;49.932;8.308;2022-12-18T02:41:38;-9.60;99.90
12557;DHT22;6344;49.932;8.308;2022-12-18T02:44:08;-9.40;99.90
12557;DHT22;6344;49.932;8.308;2022-12-18T02:46:40;-9.30;99.90
12557;DHT22;6344;49.932;8.308;2022-12-18T02:49:20;-9.30;99.90
12557;DHT22;6344;49.932;8.308;2022-12-18T02:51:53;-9.30;99.90
12557;DHT22;6344;49.932;8.308;2022-12-18T02:54:37;-9.20;99.90
12557;DHT22;6344;49.932;8.308;2022-12-18T02:57:16;-9.10;99.90
12557;DHT22;6344;49.932;8.308;2022-12-18T02:59:50;-9.00;99.90
12557;DHT22;6344;49.932;8.308;2022-12-18T03:02:32;-9.00;99.90
12557;DHT22;6344;49.932;8.308;2022-12-18T03:05:08;-9.00;99.90
12557;DHT22;6344;49.932;8.308;2022-12-18T03:07:39;-8.90;99.90
12557;DHT22;6344;49.932;8.308;2022-12-18T03:10:12;-9.00;99.90
12557;DHT22;6344;49.932;8.308;2022-12-18T03:12:59;-9.00;99.90
12557;DHT22;6344;49.932;8.308;2022-12-18T03:15:30;-9.00;99.90
12557;DHT22;6344;49.932;8.308;2022-12-18T03:18:09;-9.00;99.90
12557;DHT22;6344;49.932;8.308;2022-12-18T03:20:55;-9.10;99.90
12557;DHT22;6344;49.932;8.308;2022-12-18T03:23:28;-9.30;99.90
12557;DHT22;6344;49.932;8.308;2022-12-18T03:26:01;-9.30;99.90
12557;DHT22;6344;49.932;8.308;2022-12-18T03:28:33;-9.30;99.90
12557;DHT22;6344;49.932;8.308;2022-12-18T03:31:07;-9.30;99.90
12557;DHT22;6344;49.932;8.308;2022-12-18T03:33:42;-9.30;99.90
12557;DHT22;6344;49.932;8.308;2022-12-18T03:36:17;-9.30;99.90
12557;DHT22;6344;49.932;8.308;2022-12-18T03:38:45;-9.20;99.90
12557;DHT22;6344;49.932;8.308;2022-12-18T03:41:25;-9.10;99.90
12557;DHT22;6344;49.932;8.308;2022-12-18T03:43:59;-9.10;99.90
12557;DHT22;6344;49.932;8.308;2022-12-18T03:46:30;-9.10;99.90
12557;DHT22;6344;49.932;8.308;2022-12-18T03:49:02;-9.00;99.90
12557;DHT22;6344;49.932;8.308;2022-12-18T03:51:39;-9.00;99.90
12557;DHT22;6344;49.932;8.308;2022-12-18T03:54:11;-8.90;99.90
12557;DHT22;6344;49.932;8.308;2022-12-18T03:56:44;-9.00;99.90
12557;DHT22;6344;49.932;8.308;2022-12-18T03:59:21;-9.00;99.90
12557;DHT22;6344;49.932;8.308;2022-12-18T04:01:51;-9.00;99.90
12557;DHT22;6344;49.932;8.308;2022-12-18T04:04:20;-9.10;99.90
12557;DHT22;6344;49.932;8.308;2022-12-18T04:06:50;-9.10;99.90
12557;DHT22;6344;49.932;8.308;2022-12-18T04:09:18;-9.20;99.90
12557;DHT22;6344;49.932;8.308;2022-12-18T04:11:53;-9.20;99.90
12557;DHT22;6344;49.932;8.308;2022-12-18T04:14:21;-9.30;99.90
12557;DHT22;6344;49.932;8.308;2022-12-18T04:16:48;-9.30;99.90
12557;DHT22;6344;49.932;8.308;2022-12-18T04:19:16;-9.20;99.90
12557;DHT22;6344;49.932;8.308;2022-12-18T04:21:46;-9.10;99.90
12557;DHT22;6344;49.932;8.308;2022-12-18T04:24:19;-9.20;99.90
12557;DHT22;6344;49.932;8.308;2022-12-18T04:26:55;-9.30;99.90
12557;DHT22;6344;49.932;8.308;2022-12-18T04:29:26;-9.20;99.90
12557;DHT22;6344;49.932;8.308;2022-12-18T04:31:54;-9.10;99.90
12557;DHT22;6344;49.932;8.308;2022-12-18T04:34:23;-9.10;99.90
12557;DHT22;6344;49.932;8.308;2022-12-18T04:36:57;-9.10;99.90
12557;DHT22;6344;49.932;8.308;2022-12-18T04:39:34;-9.00;99.90
12557;DHT22;6344;49.932;8.308;2022-12-18T04:42:01;-9.10;99.90
12557;DHT22;6344;49.932;8.308;2022-12-18T04:44:31;-9.20;99.90
12557;DHT22;6344;49.932;8.308;2022-12-18T04:46:59;-9.30;99.90
12557;DHT22;6344;49.932;8.308;2022-12-18T04:49:28;-9.50;99.90
12557;DHT22;6344;49.932;8.308;2022-12-18T04:51:54;-9.50;99.90
12557;DHT22;6344;49.932;8.308;2022-12-18T04:54:30;-9.20;99.90
12557;DHT22;6344;49.932;8.308;2022-12-18T04:57:02;-9.10;99.90
12557;DHT22;6344;49.932;8.308;2022-12-18T04:59:30;-9.10;99.90
12557;DHT22;6344;49.932;8.308;2022-12-18T05:01:58;-8.90;99.90
12557;DHT22;6344;49.932;8.308;2022-12-18T05:04:28;-9.10;99.90
12557;DHT22;6344;49.932;8.308;2022-12-18T05:06:56;-9.20;99.90
12557;DHT22;6344;49.932;8.308;2022-12-18T05:09:23;-9.20;99.90
12557;DHT22;6344;49.932;8.308;2022-12-18T05:11:50;-9.00;99.90
12557;DHT22;6344;49.932;8.308;2022-12-18T05:14:27;-9.10;99.90
12557;DHT22;6344;49.932;8.308;2022-12-18T05:17:00;-9.20;99.90
12557;DHT22;6344;49.932;8.308;2022-12-18T05:19:35;-9.10;99.90
12557;DHT22;6344;49.932;8.308;2022-12-18T05:22:05;-9.00;99.90
12557;DHT22;6344;49.932;8.308;2022-12-18T05:24:38;-8.90;99.90
12557;DHT22;6344;49.932;8.308;2022-12-18T05:27:25;-9.10;99.90
12557;DHT22;6344;49.932;8.308;2022-12-18T05:29:57;-9.10;99.90
12557;DHT22;6344;49.932;8.308;2022-12-18T05:32:30;-9.20;99.90
12557;DHT22;6344;49.932;8.308;2022-12-18T05:35:03;-9.50;99.90
12557;DHT22;6344;49.932;8.308;2022-12-18T05:37:33;-9.30;99.90
12557;DHT22;6344;49.932;8.308;2022-12-18T05:40:07;-9.20;99.90
12557;DHT22;6344;49.932;8.308;2022-12-18T05:42:33;-9.20;99.90
12557;DHT22;6344;49.932;8.308;2022-12-18T05:45:00;-9.30;99.90
12557;DHT22;6344;49.932;8.308;2022-12-18T05:47:40;-9.50;99.90
12557;DHT22;6344;49.932;8.308;2022-12-18T05:50:10;-9.40;99.90
12557;DHT22;6344;49.932;8.308;2022-12-18T05:52:44;-9.30;99.90
12557;DHT22;6344;49.932;8.308;2022-12-18T05:55:23;-9.20;99.90
12557;DHT22;6344;49.932;8.308;2022-12-18T05:57:51;-9.30;99.90
12557;DHT22;6344;49.932;8.308;2022-12-18T06:00:20;-9.40;99.90
12557;DHT22;6344;49.932;8.308;2022-12-18T06:02:50;-9.40;99.90
12557;DHT22;6344;49.932;8.308;2022-12-18T06:05:20;-9.50;99.90
12557;DHT22;6344;49.932;8.308;2022-12-18T06:07:50;-9.60;99.90
12557;DHT22;6344;49.932;8.308;2022-12-18T06:10:17;-9.50;99.90
12557;DHT22;6344;49.932;8.308;2022-12-18T06:12:46;-9.40;99.90
12557;DHT22;6344;49.932;8.308;2022-12-18T06:15:21;-9.20;99.90
12557;DHT22;6344;49.932;8.308;2022-12-18T06:17:54;-9.20;99.90
12557;DHT22;6344;49.932;8.308;2022-12-18T06:20:27;-9.10;99.90
12557;DHT22;6344;49.932;8.308;2022-12-18T06:22:55;-9.10;99.90
12557;DHT22;6344;49.932;8.308;2022-12-18T06:25:24;-9.20;99.90
12557;DHT22;6344;49.932;8.308;2022-12-18T06:27:55;-9.30;99.90
12557;DHT22;6344;49.932;8.308;2022-12-18T06:30:23;-9.30;99.90
12557;DHT22;6344;49.932;8.308;2022-12-18T06:32:55;-9.50;99.90
12557;DHT22;6344;49.932;8.308;2022-12-18T06:35:24;-9.60;99.90
12557;DHT22;6344;49.932;8.308;2022-12-18T06:37:51;-9.60;99.90
12557;DHT22;6344;49.932;8.308;2022-12-18T06:40:21;-9.60;99.90
12557;DHT22;6344;49.932;8.308;2022-12-18T06:42:54;-9.60;99.90
12557;DHT22;6344;49.932;8.308;2022-12-18T06:45:25;-9.80;99.90
12557;DHT22;6344;49.932;8.308;2022-12-18T06:47:55;-9.90;99.90
12557;DHT22;6344;49.932;8.308;2022-12-18T06:50:27;-9.70;99.90
12557;DHT22;6344;49.932;8.308;2022-12-18T06:53:00;-9.60;99.90
12557;DHT22;6344;49.932;8.308;2022-12-18T06:55:26;-9.80;99.90
12557;DHT22;6344;49.932;8.308;2022-12-18T06:57:56;-9.80;99.90
12557;DHT22;6344;49.932;8.308;2022-12-18T07:00:28;-9.70;99.90
12557;DHT22;6344;49.932;8.308;2022-12-18T07:02:56;-9.60;99.90
12557;DHT22;6344;49.932;8.308;2022-12-18T07:05:26;-9.60;99.90
12557;DHT22;6344;49.932;8.308;2022-12-18T07:07:55;-9.60;99.90
12557;DHT22;6344;49.932;8.308;2022-12-18T07:10:27;-9.60;99.90
12557;DHT22;6344;49.932;8.308;2022-12-18T07:12:54;-9.70;99.90
12557;DHT22;6344;49.932;8.308;2022-12-18T07:15:22;-9.70;99.90
12557;DHT22;6344;49.932;8.308;2022-12-18T07:17:49;-9.70;99.90
12557;DHT22;6344;49.932;8.308;2022-12-18T07:20:19;-9.90;99.90
12557;DHT22;6344;49.932;8.308;2022-12-18T07:22:56;-9.90;99.90
12557;DHT22;6344;49.932;8.308;2022-12-18T07:25:29;-9.90;99.90
12557;DHT22;6344;49.932;8.308;2022-12-18T07:27:58;-10.10;99.90
12557;DHT22;6344;49.932;8.308;2022-12-18T07:30:38;-10.10;99.90
12557;DHT22;6344;49.932;8.308;2022-12-18T07:33:12;-10.10;99.90
12557;DHT22;6344;49.932;8.308;2022-12-18T07:35:42;-10.20;99.90
12557;DHT22;6344;49.932;8.308;2022-12-18T07:38:08;-10.00;99.90
12557;DHT22;6344;49.932;8.308;2022-12-18T07:40:41;-9.90;99.90
12557;DHT22;6344;49.932;8.308;2022-12-18T07:43:15;-9.90;99.90
12557;DHT22;6344;49.932;8.308;2022-12-18T07:45:44;-9.80;99.90
12557;DHT22;6344;49.932;8.308;2022-12-18T07:48:14;-9.70;99.90
12557;DHT22;6344;49.932;8.308;2022-12-18T07:51:01;-9.80;99.90
12557;DHT22;6344;49.932;8.308;2022-12-18T07:53:28;-9.70;99.90
12557;DHT22;6344;49.932;8.308;2022-12-18T07:55:59;-9.80;99.90
12557;DHT22;6344;49.932;8.308;2022-12-18T07:58:27;-9.80;99.90
12557;DHT22;6344;49.932;8.308;2022-12-18T08:01:01;-9.60;99.90
12557;DHT22;6344;49.932;8.308;2022-12-18T08:03:30;-9.50;99.90
12557;DHT22;6344;49.932;8.308;2022-12-18T08:06:07;-9.50;99.90
12557;DHT22;6344;49.932;8.308;2022-12-18T08:08:34;-9.40;99.90
12557;DHT22;6344;49.932;8.308;2022-12-18T08:11:13;-9.40;99.90
12557;DHT22;6344;49.932;8.308;2022-12-18T08:13:44;-9.30;99.90
12557;DHT22;6344;49.932;8.308;2022-12-18T08:16:11;-9.20;99.90
12557;DHT22;6344;49.932;8.308;2022-12-18T08:18:41;-8.90;99.90
12557;DHT22;6344;49.932;8.308;2022-12-18T08:21:09;-8.60;99.90
12557;DHT22;6344;49.932;8.308;2022-12-18T08:23:37;-8.30;99.90
12557;DHT22;6344;49.932;8.308;2022-12-18T08:26:08;-8.30;99.90
12557;DHT22;6344;49.932;8.308;2022-12-18T08:28:43;-8.30;99.90
12557;DHT22;6344;49.932;8.308;2022-12-18T08:31:12;-8.30;99.90
12557;DHT22;6344;49.932;8.308;2022-12-18T08:33:42;-8.10;99.90
12557;DHT22;6344;49.932;8.308;2022-12-18T08:36:14;-8.20;99.90
12557;DHT22;6344;49.932;8.308;2022-12-18T08:38:40;-8.10;99.90
12557;DHT22;6344;49.932;8.308;2022-12-18T08:41:12;-7.70;99.90
12557;DHT22;6344;49.932;8.308;2022-12-18T08:43:44;-7.60;99.90
12557;DHT22;6344;49.932;8.308;2022-12-18T08:46:34;-7.40;99.90
12557;DHT22;6344;49.932;8.308;2022-12-18T08:49:08;-7.20;99.90
12557;DHT22;6344;49.932;8.308;2022-12-18T08:51:40;-7.20;99.90
12557;DHT22;6344;49.932;8.308;2022-12-18T08:54:11;-7.10;99.90
12557;DHT22;6344;49.932;8.308;2022-12-18T08:56:40;-7.00;99.90
12557;DHT22;6344;49.932;8.308;2022-12-18T08:59:08;-6.90;99.90
12557;DHT22;6344;49.932;8.308;2022-12-18T09:01:37;-6.90;99.90
12557;DHT22;6344;49.932;8.308;2022-12-18T09:04:04;-6.80;99.90
12557;DHT22;6344;49.932;8.308;2022-12-18T09:06:34;-6.80;99.90
12557;DHT22;6344;49.932;8.308;2022-12-18T09:09:02;-6.80;99.90
12557;DHT22;6344;49.932;8.308;2022-12-18T09:11:29;-6.70;99.90
12557;DHT22;6344;49.932;8.308;2022-12-18T09:14:00;-6.70;99.90
12557;DHT22;6344;49.932;8.308;2022-12-18T09:16:33;-6.70;99.90
12557;DHT22;6344;49.932;8.308;2022-12-18T09:19:03;-6.60;99.90
12557;DHT22;6344;49.932;8.308;2022-12-18T09:21:34;-6.60;99.90
12557;DHT22;6344;49.932;8.308;2022-12-18T09:24:05;-6.60;99.90
12557;DHT22;6344;49.932;8.308;2022-12-18T09:26:33;-6.40;99.90
12557;DHT22;6344;49.932;8.308;2022-12-18T09:29:02;-6.40;99.90
12557;DHT22;6344;49.932;8.308;2022-12-18T09:31:33;-6.40;99.90
12557;DHT22;6344;49.932;8.308;2022-12-18T09:34:06;-6.30;99.90
12557;DHT22;6344;49.932;8.308;2022-12-18T09:36:35;-6.20;99.90
12557;DHT22;6344;49.932;8.308;2022-12-18T09:39:04;-6.00;99.90
12557;DHT22;6344;49.932;8.308;2022-12-18T09:41:44;-5.80;99.90
12557;DHT22;6344;49.932;8.308;2022-12-18T09:44:24;-5.60;99.90
12557;DHT22;6344;49.932;8.308;2022-12-18T09:47:09;-5.60;99.90
12557;DHT22;6344;49.932;8.308;2022-12-18T09:49:45;-5.30;99.90
12557;DHT22;6344;49.932;8.308;2022-12-18T09:52:17;-5.10;99.90
12557;DHT22;6344;49.932;8.308;2022-12-18T09:54:53;-4.80;99.90
12557;DHT22;6344;49.932;8.308;2022-12-18T09:57:24;-4.70;99.90
12557;DHT22;6344;49.932;8.308;2022-12-18T09:59:55;-4.80;99.90
12557;DHT22;6344;49.932;8.308;2022-12-18T10:02:30;-4.90;99.90
12557;DHT22;6344;49.932;8.308;2022-12-18T10:05:11;-4.90;99.90
12557;DHT22;6344;49.932;8.308;2022-12-18T10:07:50;-4.90;99.90
12557;DHT22;6344;49.932;8.308;2022-12-18T10:10:30;-5.00;99.90
12557;DHT22;6344;49.932;8.308;2022-12-18T10:13:24;-5.00;99.90
12557;DHT22;6344;49.932;8.308;2022-12-18T10:16:03;-4.90;99.90
12557;DHT22;6344;49.932;8.308;2022-12-18T10:18:48;-4.50;99.90
12557;DHT22;6344;49.932;8.308;2022-12-18T10:21:20;-4.40;99.90
12557;DHT22;6344;49.932;8.308;2022-12-18T10:23:54;-4.00;99.90
12557;DHT22;6344;49.932;8.308;2022-12-18T10:26:25;-3.70;99.90
12557;DHT22;6344;49.932;8.308;2022-12-18T10:28:53;-3.50;99.90
12557;DHT22;6344;49.932;8.308;2022-12-18T10:31:25;-3.50;99.90
12557;DHT22;6344;49.932;8.308;2022-12-18T10:33:54;-3.10;99.90
12557;DHT22;6344;49.932;8.308;2022-12-18T10:36:25;-3.20;99.90
12557;DHT22;6344;49.932;8.308;2022-12-18T10:38:51;-3.40;99.90
12557;DHT22;6344;49.932;8.308;2022-12-18T10:41:27;-3.30;99.90
12557;DHT22;6344;49.932;8.308;2022-12-18T10:44:16;-3.40;99.90
12557;DHT22;6344;49.932;8.308;2022-12-18T10:46:44;-2.80;99.90
12557;DHT22;6344;49.932;8.308;2022-12-18T10:49:25;-2.90;99.90
12557;DHT22;6344;49.932;8.308;2022-12-18T10:52:05;-2.90;99.90
12557;DHT22;6344;49.932;8.308;2022-12-18T10:54:33;-3.00;99.90
12557;DHT22;6344;49.932;8.308;2022-12-18T10:57:17;-3.00;99.90
12557;DHT22;6344;49.932;8.308;2022-12-18T10:59:53;-2.90;96.20
12557;DHT22;6344;49.932;8.308;2022-12-18T11:02:28;-2.90;81.00
12557;DHT22;6344;49.932;8.308;2022-12-18T11:04:59;-2.50;99.90
12557;DHT22;6344;49.932;8.308;2022-12-18T11:07:48;-2.70;46.80
12557;DHT22;6344;49.932;8.308;2022-12-18T11:10:18;-2.90;31.60
12557;DHT22;6344;49.932;8.308;2022-12-18T11:12:48;-2.50;99.90
12557;DHT22;6344;49.932;8.308;2022-12-18T11:15:23;-1.80;99.90
12557;DHT22;6344;49.932;8.308;2022-12-18T11:18:16;-1.70;1.00
12557;DHT22;6344;49.932;8.308;2022-12-18T11:20:56;-1.60;1.00
12557;DHT22;6344;49.932;8.308;2022-12-18T11:23:24;-1.50;1.00
12557;DHT22;6344;49.932;8.308;2022-12-18T11:26:00;-1.30;1.00
12557;DHT22;6344;49.932;8.308;2022-12-18T11:28:45;-1.70;1.00
12557;DHT22;6344;49.932;8.308;2022-12-18T11:31:24;-1.50;1.00
12557;DHT22;6344;49.932;8.308;2022-12-18T11:34:04;-1.60;1.00
12557;DHT22;6344;49.932;8.308;2022-12-18T11:36:37;-1.40;1.00
12557;DHT22;6344;49.932;8.308;2022-12-18T11:39:14;-1.00;1.00
12557;DHT22;6344;49.932;8.308;2022-12-18T11:41:50;-1.10;1.00
12557;DHT22;6344;49.932;8.308;2022-12-18T11:44:48;-0.90;1.00
12557;DHT22;6344;49.932;8.308;2022-12-18T11:47:27;-1.20;1.00
12557;DHT22;6344;49.932;8.308;2022-12-18T11:49:55;-1.40;1.00
12557;DHT22;6344;49.932;8.308;2022-12-18T11:52:31;-1.30;1.00
12557;DHT22;6344;49.932;8.308;2022-12-18T11:55:08;-1.40;1.00
12557;DHT22;6344;49.932;8.308;2022-12-18T11:57:50;-1.80;1.00
12557;DHT22;6344;49.932;8.308;2022-12-18T12:00:22;-1.60;1.00
12557;DHT22;6344;49.932;8.308;2022-12-18T12:03:15;-1.50;1.00
12557;DHT22;6344;49.932;8.308;2022-12-18T12:05:55;-1.30;1.00
12557;DHT22;6344;49.932;8.308;2022-12-18T12:08:37;-1.90;1.00
12557;DHT22;6344;49.932;8.308;2022-12-18T12:11:11;-2.10;1.00
12557;DHT22;6344;49.932;8.308;2022-12-18T12:14:01;-2.20;1.00
12557;DHT22;6344;49.932;8.308;2022-12-18T12:16:43;-1.80;1.00
12557;DHT22;6344;49.932;8.308;2022-12-18T12:19:29;-1.50;1.00
12557;DHT22;6344;49.932;8.308;2022-12-18T12:22:12;-1.90;1.00
12557;DHT22;6344;49.932;8.308;2022-12-18T12:24:56;-1.70;1.00
12557;DHT22;6344;49.932;8.308;2022-12-18T12:27:36;-2.00;1.00
12557;DHT22;6344;49.932;8.308;2022-12-18T12:30:22;-1.70;1.00
12557;DHT22;6344;49.932;8.308;2022-12-18T12:33:07;-1.50;1.00
12557;DHT22;6344;49.932;8.308;2022-12-18T12:35:46;-1.10;1.00
12557;DHT22;6344;49.932;8.308;2022-12-18T12:38:16;-1.00;1.00
12557;DHT22;6344;49.932;8.308;2022-12-18T12:40:49;-1.30;1.00
12557;DHT22;6344;49.932;8.308;2022-12-18T12:43:28;-1.40;1.00
12557;DHT22;6344;49.932;8.308;2022-12-18T12:46:00;-1.50;1.00
12557;DHT22;6344;49.932;8.308;2022-12-18T12:48:46;-1.50;1.00
12557;DHT22;6344;49.932;8.308;2022-12-18T12:51:18;-1.50;1.00
12557;DHT22;6344;49.932;8.308;2022-12-18T12:53:50;-1.80;1.00
12557;DHT22;6344;49.932;8.308;2022-12-18T12:56:21;-2.20;1.00
12557;DHT22;6344;49.932;8.308;2022-12-18T12:58:59;-2.20;1.00
12557;DHT22;6344;49.932;8.308;2022-12-18T13:01:37;-2.40;1.00
12557;DHT22;6344;49.932;8.308;2022-12-18T13:04:16;-2.30;1.00
12557;DHT22;6344;49.932;8.308;2022-12-18T13:06:56;-2.50;1.00
12557;DHT22;6344;49.932;8.308;2022-12-18T13:09:29;-2.80;17.40
12557;DHT22;6344;49.932;8.308;2022-12-18T13:12:02;-2.50;9.20
12557;DHT22;6344;49.932;8.308;2022-12-18T13:14:46;-2.40;1.00
12557;DHT22;6344;49.932;8.308;2022-12-18T13:17:36;-2.30;1.00
12557;DHT22;6344;49.932;8.308;2022-12-18T13:20:07;-2.40;1.00
12557;DHT22;6344;49.932;8.308;2022-12-18T13:22:38;-2.30;1.00
12557;DHT22;6344;49.932;8.308;2022-12-18T13:25:32;-2.40;1.00
12557;DHT22;6344;49.932;8.308;2022-12-18T13:28:03;-2.30;1.00
12557;DHT22;6344;49.932;8.308;2022-12-18T13:33:50;-2.20;1.00
12557;DHT22;6344;49.932;8.308;2022-12-18T13:36:32;-2.20;1.00
12557;DHT22;6344;49.932;8.308;2022-12-18T13:39:23;-2.30;1.00
12557;DHT22;6344;49.932;8.308;2022-12-18T13:42:30;-2.20;1.00
12557;DHT22;6344;49.932;8.308;2022-12-18T13:45:03;-2.50;1.00
12557;DHT22;6344;49.932;8.308;2022-12-18T13:47:54;-2.50;1.00
12557;DHT22;6344;49.932;8.308;2022-12-18T13:50:25;-2.50;1.00
12557;DHT22;6344;49.932;8.308;2022-12-18T13:52:59;-2.30;1.00
12557;DHT22;6344;49.932;8.308;2022-12-18T13:55:29;-2.40;1.00
12557;DHT22;6344;49.932;8.308;2022-12-18T13:58:03;-2.70;1.00
12557;DHT22;6344;49.932;8.308;2022-12-18T14:00:31;-2.80;1.00
12557;DHT22;6344;49.932;8.308;2022-12-18T14:03:19;-2.90;19.10
12557;DHT22;6344;49.932;8.308;2022-12-18T14:05:53;-2.80;11.80
12557;DHT22;6344;49.932;8.308;2022-12-18T14:08:29;-2.90;9.80
12557;DHT22;6344;49.932;8.308;2022-12-18T14:10:58;-2.90;12.60
12557;DHT22;6344;49.932;8.308;2022-12-18T14:13:36;-2.90;12.70
12557;DHT22;6344;49.932;8.308;2022-12-18T14:16:14;-2.90;16.40
12557;DHT22;6344;49.932;8.308;2022-12-18T14:18:46;-2.90;26.50
12557;DHT22;6344;49.932;8.308;2022-12-18T14:21:21;-3.00;34.60
12557;DHT22;6344;49.932;8.308;2022-12-18T14:24:03;-3.00;42.90
12557;DHT22;6344;49.932;8.308;2022-12-18T14:26:31;-3.00;56.90
12557;DHT22;6344;49.932;8.308;2022-12-18T14:29:20;-3.00;55.10
12557;DHT22;6344;49.932;8.308;2022-12-18T14:32:27;-3.20;95.70
12557;DHT22;6344;49.932;8.308;2022-12-18T14:34:58;-3.30;99.90
12557;DHT22;6344;49.932;8.308;2022-12-18T14:37:44;-3.30;99.90
12557;DHT22;6344;49.932;8.308;2022-12-18T14:40:23;-3.40;99.90
12557;DHT22;6344;49.932;8.308;2022-12-18T14:42:50;-3.40;99.90
12557;DHT22;6344;49.932;8.308;2022-12-18T14:45:40;-3.40;99.90
12557;DHT22;6344;49.932;8.308;2022-12-18T14:48:19;-3.40;99.90
12557;DHT22;6344;49.932;8.308;2022-12-18T14:50:58;-3.50;99.90
12557;DHT22;6344;49.932;8.308;2022-12-18T14:53:35;-3.50;99.90
12557;DHT22;6344;49.932;8.308;2022-12-18T14:56:18;-3.60;99.90
12557;DHT22;6344;49.932;8.308;2022-12-18T14:58:49;-3.60;99.90
12557;DHT22;6344;49.932;8.308;2022-12-18T15:01:26;-3.60;99.90
12557;DHT22;6344;49.932;8.308;2022-12-18T15:03:57;-3.60;99.90
12557;DHT22;6344;49.932;8.308;2022-12-18T15:06:37;-3.60;99.90
12557;DHT22;6344;49.932;8.308;2022-12-18T15:09:21;-3.70;99.90
12557;DHT22;6344;49.932;8.308;2022-12-18T15:11:54;-3.70;99.90
12557;DHT22;6344;49.932;8.308;2022-12-18T15:14:39;-3.80;99.90
12557;DHT22;6344;49.932;8.308;2022-12-18T15:17:21;-3.80;99.90
12557;DHT22;6344;49.932;8.308;2022-12-18T15:19:58;-3.90;99.90
12557;DHT22;6344;49.932;8.308;2022-12-18T15:22:36;-3.90;99.90
12557;DHT22;6344;49.932;8.308;2022-12-18T15:25:24;-3.90;99.90
12557;DHT22;6344;49.932;8.308;2022-12-18T15:27:53;-4.00;99.90
12557;DHT22;6344;49.932;8.308;2022-12-18T15:30:22;-4.00;99.90
12557;DHT22;6344;49.932;8.308;2022-12-18T15:32:52;-4.10;99.90
12557;DHT22;6344;49.932;8.308;2022-12-18T15:35:23;-4.20;99.90
12557;DHT22;6344;49.932;8.308;2022-12-18T15:37:55;-4.20;99.90
12557;DHT22;6344;49.932;8.308;2022-12-18T15:40:25;-4.10;99.90
12557;DHT22;6344;49.932;8.308;2022-12-18T15:42:56;-4.10;99.90
12557;DHT22;6344;49.932;8.308;2022-12-18T15:45:42;-4.20;99.90
12557;DHT22;6344;49.932;8.308;2022-12-18T15:48:18;-4.20;99.90
12557;DHT22;6344;49.932;8.308;2022-12-18T15:50:52;-4.10;99.90
12557;DHT22;6344;49.932;8.308;2022-12-18T15:53:31;-4.30;99.90
12557;DHT22;6344;49.932;8.308;2022-12-18T15:56:00;-4.50;99.90
12557;DHT22;6344;49.932;8.308;2022-12-18T15:58:46;-4.40;99.90
12557;DHT22;6344;49.932;8.308;2022-12-18T16:01:25;-4.40;99.90
12557;DHT22;6344;49.932;8.308;2022-12-18T16:03:59;-4.50;99.90
12557;DHT22;6344;49.932;8.308;2022-12-18T16:06:30;-4.30;99.90
12557;DHT22;6344;49.932;8.308;2022-12-18T16:09:02;-4.10;99.90
12557;DHT22;6344;49.932;8.308;2022-12-18T16:11:37;-4.10;99.90
12557;DHT22;6344;49.932;8.308;2022-12-18T16:14:22;-4.10;99.90
12557;DHT22;6344;49.932;8.308;2022-12-18T16:16:56;-4.20;99.90
12557;DHT22;6344;49.932;8.308;2022-12-18T16:19:24;-4.10;99.90
12557;DHT22;6344;49.932;8.308;2022-12-18T16:21:52;-4.00;99.90
12557;DHT22;6344;49.932;8.308;2022-12-18T16:24:24;-3.90;99.90
12557;DHT22;6344;49.932;8.308;2022-12-18T16:27:07;-4.00;99.90
12557;DHT22;6344;49.932;8.308;2022-12-18T16:29:40;-4.30;99.90
12557;DHT22;6344;49.932;8.308;2022-12-18T16:32:23;-4.30;99.90
12557;DHT22;6344;49.932;8.308;2022-12-18T16:34:53;-4.10;99.90